Time;durP1;ratioP1;P1;durP2;ratioP2;P2;SDS_P1;SDS_P2;PMS_P1;PMS_P2;Temp;Humidity;BMP_temperature;BMP_pressure;BME280_temperature;BME280_humidity;BME280_pressure;Samples;Min_cycle;Max_cycle;Signal;HPM_P1;HPM_P2
2021/11/30 00:01:58;;;;;;;19.00;13.20;;;3.90;99.90;;;;;;4918247;29;20476;-62
2021/11/30 00:04:29;;;;;;;15.00;12.40;;;3.90;99.90;;;;;;4915289;29;20903;-63
2021/11/30 00:06:58;;;;;;;17.07;12.90;;;3.90;99.90;;;;;;4918240;29;20522;-63
2021/11/30 00:12:18;;;;;;;17.63;13.23;;;3.90;99.90;;;;;;4908407;29;20563;-63
2021/11/30 00:14:47;;;;;;;18.07;12.73;;;3.90;99.90;;;;;;4923508;29;20503;-63
2021/11/30 00:17:16;;;;;;;18.23;13.20;;;3.90;99.90;;;;;;4914696;29;20486;-63
2021/11/30 00:19:46;;;;;;;17.63;13.30;;;3.90;99.90;;;;;;4913636;29;20510;-63
2021/11/30 00:22:17;;;;;;;16.70;12.77;;;3.90;99.90;;;;;;4916817;29;20831;-62
2021/11/30 00:24:46;;;;;;;18.40;13.73;;;3.90;99.90;;;;;;4912798;29;20570;-62
2021/11/30 00:27:15;;;;;;;16.90;12.37;;;3.90;99.90;;;;;;4915296;29;20572;-62
2021/11/30 00:29:43;;;;;;;16.50;12.17;;;3.90;99.90;;;;;;4909606;29;20478;-63
2021/11/30 00:32:12;;;;;;;18.77;13.13;;;3.90;99.90;;;;;;4917916;29;21017;-63
2021/11/30 00:34:40;;;;;;;21.33;14.00;;;3.90;99.90;;;;;;4905746;29;20843;-63
2021/11/30 00:37:08;;;;;;;19.83;13.37;;;3.90;99.90;;;;;;4910069;29;20563;-62
2021/11/30 00:39:36;;;;;;;18.07;13.33;;;3.90;99.90;;;;;;4909514;29;20479;-62
2021/11/30 00:42:06;;;;;;;17.83;13.20;;;3.90;99.90;;;;;;4915445;29;20479;-63
2021/11/30 00:44:36;;;;;;;21.17;13.87;;;3.90;99.90;;;;;;4923465;29;20483;-63
2021/11/30 00:47:05;;;;;;;23.23;14.00;;;3.90;99.90;;;;;;4915984;29;20537;-63
2021/11/30 00:49:33;;;;;;;19.67;14.97;;;3.90;99.90;;;;;;4911716;29;20983;-63
2021/11/30 00:52:02;;;;;;;20.37;14.97;;;3.90;99.90;;;;;;4915825;29;20841;-63
2021/11/30 00:54:30;;;;;;;20.87;14.70;;;3.90;99.90;;;;;;4913731;29;20470;-63
2021/11/30 00:56:59;;;;;;;19.83;13.73;;;3.90;99.90;;;;;;4911713;29;20479;-63
2021/11/30 00:59:28;;;;;;;21.67;14.50;;;3.90;99.90;;;;;;4915845;29;20584;-62
2021/11/30 01:01:58;;;;;;;18.50;14.07;;;3.90;99.90;;;;;;4909388;29;20480;-62
2021/11/30 01:04:28;;;;;;;18.43;13.03;;;3.90;99.90;;;;;;4914924;29;20485;-61
2021/11/30 01:06:56;;;;;;;16.80;12.63;;;3.90;99.90;;;;;;4914600;29;20486;-61
2021/11/30 01:09:25;;;;;;;18.30;13.00;;;4.00;99.90;;;;;;4917659;29;20486;-63
2021/11/30 01:11:53;;;;;;;18.73;13.33;;;4.00;99.90;;;;;;4911867;29;20483;-63
2021/11/30 01:14:23;;;;;;;19.83;13.03;;;4.00;99.90;;;;;;4917153;29;20924;-63
2021/11/30 01:16:52;;;;;;;17.93;12.90;;;4.00;99.90;;;;;;4911929;29;20504;-62
2021/11/30 01:19:21;;;;;;;17.13;12.57;;;4.00;99.90;;;;;;4912152;29;20518;-63
2021/11/30 01:21:49;;;;;;;17.63;11.50;;;4.00;99.90;;;;;;4920622;29;20476;-63
2021/11/30 01:24:17;;;;;;;17.80;12.47;;;4.00;99.90;;;;;;4914993;29;20840;-62
2021/11/30 01:26:46;;;;;;;16.83;12.63;;;4.00;99.90;;;;;;4910353;29;20563;-63
2021/11/30 01:29:14;;;;;;;14.87;12.53;;;4.00;99.90;;;;;;4911211;29;20475;-63
2021/11/30 01:31:42;;;;;;;16.97;12.40;;;4.00;99.90;;;;;;4911256;29;20477;-62
2021/11/30 01:34:11;;;;;;;16.87;12.37;;;4.00;99.90;;;;;;4914072;29;20896;-63
2021/11/30 01:36:39;;;;;;;18.33;12.83;;;4.00;99.90;;;;;;4916376;29;20495;-63
2021/11/30 01:39:08;;;;;;;15.37;11.70;;;4.00;99.90;;;;;;4912174;29;20545;-62
2021/11/30 01:41:39;;;;;;;16.47;11.80;;;4.00;99.90;;;;;;4911384;29;21054;-63
2021/11/30 01:44:12;;;;;;;16.90;11.83;;;4.00;99.90;;;;;;4919529;29;20482;-63
2021/11/30 01:46:53;;;;;;;14.03;10.90;;;4.00;99.90;;;;;;4908725;29;20559;-61
2021/11/30 01:49:31;;;;;;;12.93;10.57;;;4.00;99.90;;;;;;4915852;29;20999;-62
2021/11/30 01:51:59;;;;;;;13.63;10.60;;;4.00;99.90;;;;;;4918548;29;20484;-62
2021/11/30 01:54:27;;;;;;;14.33;11.10;;;4.00;99.90;;;;;;4918028;29;20487;-63
2021/11/30 01:56:56;;;;;;;14.47;10.63;;;4.00;99.90;;;;;;4920932;29;20516;-62
2021/11/30 01:59:25;;;;;;;17.23;11.50;;;4.00;99.90;;;;;;4916752;29;20567;-62
2021/11/30 02:01:53;;;;;;;14.00;11.07;;;3.90;99.90;;;;;;4916219;29;20478;-62
2021/11/30 02:04:23;;;;;;;14.67;11.13;;;3.90;99.90;;;;;;4923638;29;20894;-62
2021/11/30 02:06:51;;;;;;;14.43;11.30;;;3.90;99.90;;;;;;4916843;29;20984;-62
2021/11/30 02:09:19;;;;;;;14.37;10.40;;;3.90;99.90;;;;;;4912702;29;20567;-62
2021/11/30 02:11:47;;;;;;;14.13;10.83;;;3.90;99.90;;;;;;4911721;29;20565;-63
2021/11/30 02:14:15;;;;;;;13.80;10.13;;;4.00;99.90;;;;;;4921120;29;20480;-62
2021/11/30 02:16:45;;;;;;;12.17;9.43;;;4.00;99.90;;;;;;4919842;29;20506;-62
2021/11/30 02:19:14;;;;;;;13.13;9.00;;;4.00;99.90;;;;;;4916144;29;20480;-62
2021/11/30 02:21:43;;;;;;;15.00;9.10;;;4.00;99.90;;;;;;4916382;29;21003;-62
2021/11/30 02:24:12;;;;;;;12.93;9.23;;;4.00;99.90;;;;;;4924526;29;21013;-63
2021/11/30 02:26:41;;;;;;;12.40;9.33;;;4.00;99.90;;;;;;4917745;29;20483;-62
2021/11/30 02:29:11;;;;;;;13.10;8.60;;;4.00;99.90;;;;;;4917457;29;20493;-62
2021/11/30 02:31:45;;;;;;;11.43;7.40;;;4.00;99.90;;;;;;4916570;29;20475;-62
2021/11/30 02:34:14;;;;;;;9.60;6.57;;;4.00;99.90;;;;;;4917159;29;20656;-62
2021/11/30 02:36:53;;;;;;;8.27;6.40;;;4.10;99.90;;;;;;4912569;29;20467;-63
2021/11/30 02:39:24;;;;;;;10.43;7.13;;;4.00;99.90;;;;;;4920511;29;21257;-63
2021/11/30 02:41:55;;;;;;;7.03;5.90;;;4.10;99.90;;;;;;4914033;29;21061;-63
2021/11/30 02:44:25;;;;;;;6.47;5.20;;;4.10;99.90;;;;;;4918979;29;20558;-62
2021/11/30 02:46:55;;;;;;;6.87;5.63;;;4.10;99.90;;;;;;4915143;29;20878;-63
2021/11/30 02:49:25;;;;;;;10.10;6.10;;;4.00;99.90;;;;;;4917982;29;20480;-63
2021/11/30 02:52:02;;;;;;;8.27;5.60;;;4.00;99.90;;;;;;4919833;29;20493;-63
2021/11/30 02:54:31;;;;;;;8.27;6.10;;;4.00;99.90;;;;;;4916923;29;20494;-63
2021/11/30 02:57:01;;;;;;;7.67;5.57;;;4.00;99.90;;;;;;4923656;29;20892;-62
2021/11/30 02:59:33;;;;;;;10.83;6.23;;;4.00;99.90;;;;;;4919534;29;20511;-62
2021/11/30 03:02:03;;;;;;;7.60;6.10;;;4.00;99.90;;;;;;4917483;29;20621;-63
2021/11/30 03:04:33;;;;;;;8.33;5.83;;;4.00;99.90;;;;;;4922460;29;20479;-62
2021/11/30 03:07:02;;;;;;;7.00;6.07;;;4.00;99.90;;;;;;4918809;29;20516;-62
2021/11/30 03:09:30;;;;;;;8.63;6.63;;;4.00;99.90;;;;;;4916217;29;20566;-63
2021/11/30 03:11:59;;;;;;;7.73;6.87;;;4.00;99.90;;;;;;4918178;29;20893;-62
2021/11/30 03:14:29;;;;;;;10.27;7.17;;;4.00;99.90;;;;;;4924008;29;20553;-62
2021/11/30 03:16:58;;;;;;;9.80;6.70;;;4.00;99.90;;;;;;4919505;29;20593;-63
2021/11/30 03:19:29;;;;;;;7.97;6.80;;;4.00;99.90;;;;;;4914563;29;20483;-63
2021/11/30 03:21:58;;;;;;;8.60;7.37;;;4.10;99.90;;;;;;4914114;29;20622;-62
2021/11/30 03:24:29;;;;;;;7.93;6.57;;;4.00;99.90;;;;;;4911723;29;20489;-62
2021/11/30 03:26:57;;;;;;;10.10;7.20;;;4.00;99.90;;;;;;4918348;29;20571;-62
2021/11/30 03:29:26;;;;;;;9.50;6.73;;;4.00;99.90;;;;;;4917592;29;20491;-63
2021/11/30 03:32:02;;;;;;;8.10;6.83;;;4.00;99.90;;;;;;4918700;29;20508;-63
2021/11/30 03:34:30;;;;;;;7.87;6.97;;;4.00;99.90;;;;;;4918493;29;20494;-61
2021/11/30 03:36:59;;;;;;;8.20;7.40;;;4.00;99.90;;;;;;4917817;29;20533;-63
2021/11/30 03:39:28;;;;;;;11.30;7.23;;;4.10;99.90;;;;;;4918178;29;20492;-63
2021/11/30 03:41:59;;;;;;;7.77;6.90;;;4.00;99.90;;;;;;4917470;29;20580;-62
2021/11/30 03:44:29;;;;;;;10.40;7.67;;;4.00;99.90;;;;;;4918752;29;20480;-63
2021/11/30 03:46:58;;;;;;;8.33;7.27;;;4.00;99.90;;;;;;4923043;29;20478;-62
2021/11/30 03:49:27;;;;;;;11.03;7.53;;;4.00;99.90;;;;;;4916960;29;20560;-63
2021/11/30 03:51:55;;;;;;;8.53;7.17;;;4.00;99.90;;;;;;4911492;29;20501;-62
2021/11/30 03:54:24;;;;;;;10.23;7.67;;;4.00;99.90;;;;;;4918000;29;20856;-63
2021/11/30 03:56:54;;;;;;;8.47;6.90;;;4.00;99.90;;;;;;4918053;29;20571;-63
2021/11/30 03:59:22;;;;;;;8.00;7.20;;;4.00;99.90;;;;;;4919139;29;20502;-62
2021/11/30 04:01:51;;;;;;;7.90;6.67;;;4.00;99.90;;;;;;4916891;29;20560;-62
2021/11/30 04:04:23;;;;;;;9.70;7.20;;;4.00;99.90;;;;;;4919249;29;20608;-62
2021/11/30 04:06:53;;;;;;;8.03;7.20;;;4.00;99.90;;;;;;4916092;29;20926;-62
2021/11/30 04:09:21;;;;;;;8.53;7.23;;;4.00;99.90;;;;;;4916720;29;20483;-63
2021/11/30 04:11:50;;;;;;;8.77;7.87;;;4.00;99.90;;;;;;4912387;29;20519;-61
2021/11/30 04:14:20;;;;;;;9.67;8.03;;;4.00;99.90;;;;;;4916927;29;20494;-63
2021/11/30 04:16:49;;;;;;;8.70;7.90;;;4.10;99.90;;;;;;4920568;29;20486;-62
2021/11/30 04:19:17;;;;;;;9.27;8.37;;;4.10;99.90;;;;;;4912798;29;20564;-63
2021/11/30 04:21:46;;;;;;;8.20;7.40;;;4.10;99.90;;;;;;4920412;29;20534;-63
2021/11/30 04:24:14;;;;;;;10.23;9.23;;;4.10;99.90;;;;;;4921610;29;20470;-62
2021/11/30 04:26:42;;;;;;;11.03;9.93;;;4.20;99.90;;;;;;4920576;29;20570;-62
2021/11/30 04:29:11;;;;;;;9.73;8.40;;;4.20;99.90;;;;;;4915232;29;20484;-62
2021/11/30 04:31:40;;;;;;;9.80;8.87;;;4.10;99.90;;;;;;4915903;29;20672;-62
2021/11/30 04:34:08;;;;;;;9.33;8.43;;;4.20;99.90;;;;;;4917074;29;20480;-63
2021/11/30 04:36:36;;;;;;;9.67;8.17;;;4.20;99.90;;;;;;4912248;29;20471;-63
2021/11/30 04:39:06;;;;;;;9.17;8.37;;;4.30;99.90;;;;;;4914741;29;20514;-63
2021/11/30 04:41:35;;;;;;;8.50;7.70;;;4.30;99.90;;;;;;4915349;29;20554;-63
2021/11/30 04:44:06;;;;;;;8.10;7.40;;;4.20;99.90;;;;;;4911756;29;20487;-61
2021/11/30 04:46:42;;;;;;;7.80;7.00;;;4.20;99.90;;;;;;4916447;29;20567;-62
2021/11/30 04:49:16;;;;;;;8.50;7.70;;;4.20;99.90;;;;;;4915553;29;20518;-63
2021/11/30 04:51:45;;;;;;;9.77;7.77;;;4.30;99.90;;;;;;4911085;29;20931;-63
2021/11/30 04:54:13;;;;;;;7.80;7.00;;;4.30;99.90;;;;;;4916431;29;20519;-63
2021/11/30 04:56:41;;;;;;;8.03;7.23;;;4.30;99.90;;;;;;4915480;29;20508;-62
2021/11/30 04:59:09;;;;;;;8.33;7.53;;;4.40;99.90;;;;;;4916225;29;20472;-63
2021/11/30 05:01:37;;;;;;;6.53;5.93;;;4.40;99.90;;;;;;4922814;29;20483;-63
2021/11/30 05:04:06;;;;;;;8.17;7.37;;;4.40;99.90;;;;;;4921266;29;21069;-63
2021/11/30 05:06:37;;;;;;;7.60;6.90;;;4.40;99.90;;;;;;4915286;29;20519;-63
2021/11/30 05:09:07;;;;;;;8.10;7.30;;;4.40;99.90;;;;;;4923962;29;20526;-63
2021/11/30 05:11:36;;;;;;;7.57;6.90;;;4.40;99.90;;;;;;4920556;29;20495;-62
2021/11/30 05:14:05;;;;;;;7.57;6.87;;;4.40;99.90;;;;;;4919403;29;20488;-63
2021/11/30 05:16:33;;;;;;;7.57;6.87;;;4.40;99.90;;;;;;4912093;29;20476;-63
2021/11/30 05:19:02;;;;;;;8.00;7.07;;;4.50;99.90;;;;;;4920371;29;20518;-63
2021/11/30 05:21:30;;;;;;;8.77;7.77;;;4.50;99.90;;;;;;4911522;29;21331;-63
2021/11/30 05:24:03;;;;;;;8.87;7.97;;;4.50;99.90;;;;;;4917397;29;20483;-63
2021/11/30 05:26:32;;;;;;;9.20;6.90;;;4.50;99.90;;;;;;4918356;29;20573;-63
2021/11/30 05:29:00;;;;;;;8.20;7.50;;;4.60;99.90;;;;;;4916097;29;20471;-63
2021/11/30 05:31:28;;;;;;;7.90;7.20;;;4.70;99.90;;;;;;4917160;29;20482;-62
2021/11/30 05:33:59;;;;;;;8.60;6.33;;;4.70;99.90;;;;;;4918070;29;20503;-62
2021/11/30 05:36:29;;;;;;;7.90;7.20;;;4.70;99.90;;;;;;4923310;29;20493;-63
2021/11/30 05:38:57;;;;;;;7.80;7.00;;;4.70;99.90;;;;;;4914807;29;20575;-62
2021/11/30 05:41:27;;;;;;;8.13;7.30;;;4.70;99.90;;;;;;4916884;29;20483;-63
2021/11/30 05:43:55;;;;;;;8.47;7.60;;;4.70;99.90;;;;;;4920331;29;20576;-63
2021/11/30 05:46:23;;;;;;;8.50;7.70;;;4.70;99.90;;;;;;4916300;29;20487;-63
2021/11/30 05:48:51;;;;;;;7.53;6.83;;;4.80;99.90;;;;;;4914062;29;20504;-62
2021/11/30 05:51:19;;;;;;;8.43;7.70;;;4.80;99.90;;;;;;4923114;29;20909;-63
2021/11/30 05:53:50;;;;;;;7.27;6.07;;;4.80;99.90;;;;;;4925712;29;20521;-63
2021/11/30 05:56:19;;;;;;;8.37;7.57;;;4.90;99.90;;;;;;4924017;29;21022;-63
2021/11/30 05:58:48;;;;;;;8.37;7.40;;;5.00;99.90;;;;;;4926326;29;20478;-62
2021/11/30 06:01:22;;;;;;;9.23;8.23;;;5.00;99.90;;;;;;4922904;29;20569;-63
2021/11/30 06:03:58;;;;;;;8.33;7.60;;;5.00;99.90;;;;;;4916831;29;20516;-63
2021/11/30 06:06:28;;;;;;;11.37;7.77;;;5.00;99.90;;;;;;4921210;29;20533;-63
2021/11/30 06:08:56;;;;;;;8.87;7.97;;;5.10;99.90;;;;;;4920925;29;20848;-63
2021/11/30 06:11:24;;;;;;;9.77;8.57;;;5.10;99.90;;;;;;4924795;29;20571;-62
2021/11/30 06:13:59;;;;;;;8.90;8.07;;;5.10;99.90;;;;;;4922106;29;20895;-63
2021/11/30 06:16:31;;;;;;;9.40;8.43;;;5.10;99.90;;;;;;4920852;29;20491;-63
2021/11/30 06:18:59;;;;;;;8.67;7.80;;;5.10;99.90;;;;;;4917785;29;20475;-63
2021/11/30 06:21:28;;;;;;;10.97;8.83;;;5.10;99.90;;;;;;4912393;29;20488;-63
2021/11/30 06:23:56;;;;;;;9.27;8.37;;;5.20;99.90;;;;;;4919960;29;20479;-63
2021/11/30 06:26:24;;;;;;;8.07;7.27;;;5.20;99.90;;;;;;4919059;29;20568;-63
2021/11/30 06:28:52;;;;;;;9.23;8.33;;;5.30;99.90;;;;;;4919990;29;20486;-63
2021/11/30 06:31:25;;;;;;;8.30;7.50;;;5.30;99.90;;;;;;4921594;29;21002;-63
2021/11/30 06:33:54;;;;;;;8.20;7.40;;;5.30;99.90;;;;;;4917234;29;20483;-63
2021/11/30 06:36:22;;;;;;;8.27;7.47;;;5.40;99.90;;;;;;4915275;29;20746;-62
2021/11/30 06:38:50;;;;;;;9.07;8.17;;;5.40;99.90;;;;;;4914612;29;20988;-62
2021/11/30 06:41:18;;;;;;;8.57;7.50;;;5.50;99.90;;;;;;4915887;29;20339;-63
2021/11/30 06:43:46;;;;;;;7.60;6.87;;;5.40;99.90;;;;;;4913721;29;20479;-63
2021/11/30 06:46:15;;;;;;;8.13;7.33;;;5.50;99.90;;;;;;4915396;29;20508;-63
2021/11/30 06:48:44;;;;;;;7.03;6.33;;;5.50;99.90;;;;;;4913940;29;20484;-63
2021/11/30 06:51:14;;;;;;;8.57;5.90;;;5.50;99.90;;;;;;4919534;29;20517;-63
2021/11/30 06:53:42;;;;;;;6.53;5.83;;;5.60;99.90;;;;;;4920606;29;21158;-63
2021/11/30 06:56:11;;;;;;;6.10;5.50;;;5.60;99.90;;;;;;4918676;29;20847;-63
2021/11/30 06:58:39;;;;;;;8.00;5.73;;;5.70;99.90;;;;;;4920132;29;20581;-63
2021/11/30 07:01:09;;;;;;;9.00;5.87;;;5.70;99.90;;;;;;4911959;29;20888;-62
2021/11/30 07:03:37;;;;;;;8.53;5.63;;;5.80;99.90;;;;;;4914652;29;20495;-62
2021/11/30 07:06:12;;;;;;;9.77;5.30;;;5.70;99.90;;;;;;4919153;29;20243;-63
2021/11/30 07:08:54;;;;;;;13.77;5.60;;;5.80;99.90;;;;;;4918683;29;20262;-62
2021/11/30 07:11:35;;;;;;;9.77;4.90;;;5.80;99.90;;;;;;4917158;29;20571;-63
2021/11/30 07:14:04;;;;;;;8.43;5.23;;;5.80;99.90;;;;;;4921070;29;20994;-62
2021/11/30 07:16:33;;;;;;;6.63;4.50;;;5.80;99.90;;;;;;4915934;29;20495;-63
2021/11/30 07:19:02;;;;;;;9.47;4.83;;;5.90;99.90;;;;;;4915831;29;20302;-62
2021/11/30 07:21:31;;;;;;;13.20;4.83;;;5.90;99.90;;;;;;4914702;29;20571;-62
2021/11/30 07:24:02;;;;;;;13.63;5.27;;;5.90;99.90;;;;;;4914976;29;20358;-63
2021/11/30 07:26:30;;;;;;;11.33;4.90;;;5.80;99.90;;;;;;4916988;29;20252;-63
2021/11/30 07:28:59;;;;;;;8.63;4.90;;;5.90;99.90;;;;;;4911982;29;20480;-63
2021/11/30 07:31:27;;;;;;;15.57;4.73;;;5.90;99.90;;;;;;4908723;29;20473;-63
2021/11/30 07:33:57;;;;;;;12.20;5.07;;;5.90;99.90;;;;;;4919389;29;20242;-63
2021/11/30 07:36:26;;;;;;;13.60;5.10;;;5.90;99.90;;;;;;4916447;29;20519;-63
2021/11/30 07:38:55;;;;;;;15.40;5.60;;;5.90;99.90;;;;;;4915024;29;20611;-63
2021/11/30 07:41:24;;;;;;;15.13;6.23;;;6.00;99.90;;;;;;4913051;29;20251;-62
2021/11/30 07:43:52;;;;;;;14.07;6.07;;;6.00;99.90;;;;;;4918821;29;20708;-63
2021/11/30 07:46:21;;;;;;;14.07;6.50;;;6.00;99.90;;;;;;4911052;29;20244;-63
2021/11/30 07:48:49;;;;;;;13.00;5.83;;;6.00;99.90;;;;;;4917586;29;20243;-63
2021/11/30 07:51:17;;;;;;;14.93;5.93;;;6.00;99.90;;;;;;4909460;29;20231;-63
2021/11/30 07:53:46;;;;;;;15.30;5.60;;;6.00;99.90;;;;;;4910847;29;20495;-63
2021/11/30 07:56:15;;;;;;;19.00;4.70;;;6.00;99.90;;;;;;4911373;29;20246;-62
2021/11/30 07:58:43;;;;;;;13.17;4.77;;;6.00;99.90;;;;;;4917465;29;20890;-63
2021/11/30 08:01:13;;;;;;;18.73;3.70;;;6.00;99.90;;;;;;4915141;29;20267;-63
2021/11/30 08:03:43;;;;;;;24.23;4.33;;;6.00;99.90;;;;;;4915335;29;20780;-63
2021/11/30 08:06:12;;;;;;;25.17;3.80;;;6.10;99.90;;;;;;4916512;29;20583;-62
2021/11/30 08:08:41;;;;;;;20.27;3.10;;;6.10;99.90;;;;;;4911944;29;20251;-63
2021/11/30 08:11:10;;;;;;;21.00;3.17;;;6.00;99.90;;;;;;4908216;29;20245;-62
2021/11/30 08:13:40;;;;;;;20.33;2.97;;;6.00;99.90;;;;;;4915584;29;20236;-61
2021/11/30 08:16:08;;;;;;;16.53;3.10;;;6.00;99.90;;;;;;4913256;29;20243;-63
2021/11/30 08:18:37;;;;;;;24.73;4.30;;;6.00;99.90;;;;;;4909358;29;20342;-63
2021/11/30 08:21:06;;;;;;;23.40;3.60;;;6.00;99.90;;;;;;4912227;29;20241;-63
2021/11/30 08:23:34;;;;;;;25.57;3.23;;;6.10;99.90;;;;;;4913165;29;20243;-62
2021/11/30 08:26:03;;;;;;;20.53;2.83;;;6.10;99.90;;;;;;4917040;29;20484;-62
2021/11/30 08:28:31;;;;;;;21.03;3.57;;;6.10;99.90;;;;;;4908842;29;20328;-63
2021/11/30 08:31:01;;;;;;;21.10;3.57;;;6.20;99.90;;;;;;4914874;29;20604;-63
2021/11/30 08:33:29;;;;;;;21.53;3.53;;;6.20;99.90;;;;;;4915309;29;20247;-63
2021/11/30 08:35:57;;;;;;;19.37;3.10;;;6.20;99.90;;;;;;4916454;29;20552;-63
2021/11/30 08:38:25;;;;;;;27.13;3.70;;;6.20;99.90;;;;;;4915977;29;20724;-61
2021/11/30 08:40:55;;;;;;;24.63;3.97;;;6.20;99.90;;;;;;4910072;29;20239;-63
2021/11/30 08:43:23;;;;;;;14.40;3.33;;;6.30;99.90;;;;;;4911149;29;20712;-63
2021/11/30 08:45:54;;;;;;;20.73;3.10;;;6.30;99.90;;;;;;4917179;29;20236;-62
2021/11/30 08:48:25;;;;;;;26.37;3.67;;;6.30;99.90;;;;;;4911248;29;20608;-63
2021/11/30 08:50:53;;;;;;;19.73;3.33;;;6.30;99.90;;;;;;4915814;29;20487;-63
2021/11/30 08:53:23;;;;;;;11.10;2.50;;;6.30;99.90;;;;;;4909301;29;20255;-63
2021/11/30 08:55:51;;;;;;;16.60;2.60;;;6.40;99.90;;;;;;4918484;29;20247;-63
2021/11/30 08:58:20;;;;;;;20.87;2.80;;;6.40;99.90;;;;;;4922138;29;20251;-63
2021/11/30 09:00:49;;;;;;;17.23;3.13;;;6.40;99.90;;;;;;4908685;29;20240;-63
2021/11/30 09:03:17;;;;;;;15.60;2.87;;;6.40;99.90;;;;;;4906752;29;20240;-63
2021/11/30 09:05:47;;;;;;;17.30;2.73;;;6.40;99.90;;;;;;4915813;29;20676;-63
2021/11/30 09:08:16;;;;;;;16.23;2.17;;;6.40;99.90;;;;;;4914714;29;20751;-62
2021/11/30 09:10:44;;;;;;;16.43;2.63;;;6.40;99.90;;;;;;4910720;29;20768;-62
2021/11/30 09:13:12;;;;;;;13.93;1.80;;;6.40;99.90;;;;;;4914457;29;20566;-63
2021/11/30 09:15:40;;;;;;;13.67;2.20;;;6.40;99.90;;;;;;4910292;29;20240;-63
2021/11/30 09:18:09;;;;;;;10.87;2.23;;;6.50;99.90;;;;;;4910634;29;20243;-63
2021/11/30 09:20:37;;;;;;;12.80;2.50;;;6.50;99.90;;;;;;4906749;29;20264;-63
2021/11/30 09:23:06;;;;;;;10.83;2.00;;;6.50;99.90;;;;;;4906559;29;20244;-63
2021/11/30 09:25:35;;;;;;;10.77;1.70;;;6.50;99.90;;;;;;4907839;29;20771;-62
2021/11/30 09:28:04;;;;;;;10.03;1.97;;;6.50;99.90;;;;;;4914133;29;20231;-63
2021/11/30 09:30:35;;;;;;;9.90;1.60;;;6.50;99.90;;;;;;4915440;29;20263;-63
2021/11/30 09:33:03;;;;;;;10.47;1.77;;;6.50;99.90;;;;;;4904014;29;20244;-63
2021/11/30 09:35:32;;;;;;;15.63;2.27;;;6.40;99.90;;;;;;4914593;29;20673;-63
2021/11/30 09:38:01;;;;;;;13.47;2.10;;;6.50;99.90;;;;;;4913048;29;20586;-63
2021/11/30 09:40:32;;;;;;;12.00;2.20;;;6.40;99.90;;;;;;4903651;29;20657;-63
2021/11/30 09:43:20;;;;;;;14.97;2.40;;;6.40;99.90;;;;;;4909018;29;20263;-63
2021/11/30 09:45:49;;;;;;;15.57;2.23;;;6.40;99.90;;;;;;4907414;29;20653;-63
2021/11/30 09:48:18;;;;;;;16.10;2.60;;;6.40;99.90;;;;;;4911966;29;20780;-63
2021/11/30 09:50:47;;;;;;;12.13;2.23;;;6.40;99.90;;;;;;4910976;29;20318;-63
2021/11/30 09:53:16;;;;;;;11.87;1.90;;;6.40;99.90;;;;;;4906151;29;20240;-62
2021/11/30 09:55:47;;;;;;;13.17;2.77;;;6.40;99.90;;;;;;4913074;29;21002;-63
2021/11/30 09:58:17;;;;;;;14.43;2.37;;;6.40;99.90;;;;;;4914390;29;20239;-63
2021/11/30 10:00:47;;;;;;;11.97;2.33;;;6.40;99.90;;;;;;4900274;29;20343;-62
2021/11/30 10:03:17;;;;;;;11.73;2.43;;;6.50;99.90;;;;;;4905222;29;20304;-63
2021/11/30 10:05:46;;;;;;;14.70;2.57;;;6.50;99.90;;;;;;4905591;29;20251;-63
2021/11/30 10:08:26;;;;;;;20.53;2.37;;;6.50;99.90;;;;;;4907381;29;20252;-63
2021/11/30 10:11:25;;;;;;;16.50;2.43;;;6.60;99.90;;;;;;4903405;29;20803;-63
2021/11/30 10:14:12;;;;;;;16.37;2.70;;;6.60;99.90;;;;;;4903234;29;20335;-63
2021/11/30 10:16:41;;;;;;;18.23;2.53;;;6.70;99.90;;;;;;4907615;29;20279;-62
2021/11/30 10:19:10;;;;;;;11.93;2.33;;;6.70;99.90;;;;;;4917350;29;20244;-63
2021/11/30 10:21:38;;;;;;;21.33;3.30;;;6.70;99.90;;;;;;4908949;29;20247;-62
2021/11/30 10:24:09;;;;;;;15.47;2.47;;;6.70;99.90;;;;;;4913880;29;20266;-63
2021/11/30 10:26:42;;;;;;;14.77;2.27;;;6.70;99.90;;;;;;4915162;29;20292;-63
2021/11/30 10:29:15;;;;;;;19.40;2.57;;;6.70;99.90;;;;;;4912339;29;20253;-63
2021/11/30 10:31:46;;;;;;;15.30;2.67;;;6.70;99.90;;;;;;4909420;29;20685;-63
2021/11/30 10:34:16;;;;;;;18.83;3.83;;;6.60;99.90;;;;;;4913224;29;20241;-63
2021/11/30 10:36:47;;;;;;;12.07;2.60;;;6.60;99.90;;;;;;4911311;29;20241;-63
2021/11/30 10:39:20;;;;;;;22.60;3.03;;;6.60;99.90;;;;;;4917471;29;20326;-62
2021/11/30 10:41:52;;;;;;;14.87;2.73;;;6.50;99.90;;;;;;4917582;29;20250;-63
2021/11/30 10:44:29;;;;;;;10.20;2.47;;;6.50;99.90;;;;;;4914522;29;20237;-63
2021/11/30 10:47:08;;;;;;;18.50;2.60;;;6.50;99.90;;;;;;4917256;29;20740;-63
2021/11/30 10:49:45;;;;;;;14.87;2.50;;;6.60;99.90;;;;;;4915207;29;20846;-63
2021/11/30 10:52:17;;;;;;;12.47;2.87;;;6.60;99.90;;;;;;4914761;29;20729;-63
2021/11/30 10:54:46;;;;;;;11.47;2.57;;;6.60;99.90;;;;;;4917093;29;20327;-63
2021/11/30 10:57:15;;;;;;;14.37;2.33;;;6.70;99.90;;;;;;4918440;29;20236;-62
2021/11/30 10:59:44;;;;;;;15.67;3.13;;;6.70;99.90;;;;;;4917295;29;20263;-63
2021/11/30 11:02:12;;;;;;;15.73;3.20;;;6.80;99.90;;;;;;4908809;29;20719;-63
2021/11/30 11:04:41;;;;;;;18.23;3.23;;;6.80;99.90;;;;;;4909578;29;20331;-63
2021/11/30 11:07:11;;;;;;;17.27;2.87;;;6.80;99.90;;;;;;4913069;29;20628;-63
2021/11/30 11:09:46;;;;;;;18.07;2.83;;;6.80;99.90;;;;;;4902067;29;20255;-63
2021/11/30 11:12:25;;;;;;;13.83;2.60;;;6.80;99.90;;;;;;4906596;29;20800;-62
2021/11/30 11:14:54;;;;;;;21.93;3.03;;;6.80;99.90;;;;;;4908054;29;20258;-63
2021/11/30 11:17:28;;;;;;;23.47;3.63;;;6.70;99.90;;;;;;4908138;29;20237;-62
2021/11/30 11:19:57;;;;;;;15.43;3.17;;;6.70;99.90;;;;;;4907114;29;20384;-63
2021/11/30 11:22:27;;;;;;;24.17;3.60;;;6.70;99.90;;;;;;4904480;29;20240;-63
2021/11/30 11:24:58;;;;;;;19.80;3.50;;;6.70;99.90;;;;;;4906557;29;20700;-63
2021/11/30 11:27:32;;;;;;;22.93;3.77;;;6.70;99.90;;;;;;4908051;29;21070;-63
2021/11/30 11:30:01;;;;;;;19.40;3.43;;;6.70;99.90;;;;;;4906606;29;20363;-63
2021/11/30 11:32:29;;;;;;;20.83;3.57;;;6.70;99.90;;;;;;4903698;29;20822;-63
2021/11/30 11:34:59;;;;;;;23.60;4.13;;;6.70;99.90;;;;;;4901399;29;20274;-63
2021/11/30 11:37:27;;;;;;;19.27;3.67;;;6.70;99.90;;;;;;4908099;29;20376;-63
2021/11/30 11:39:55;;;;;;;21.93;4.33;;;6.80;99.90;;;;;;4908935;29;20978;-63
2021/11/30 11:42:23;;;;;;;15.40;2.87;;;6.80;99.90;;;;;;4908261;29;20240;-63
2021/11/30 11:44:56;;;;;;;22.13;4.00;;;6.80;99.90;;;;;;4908918;29;20376;-62
2021/11/30 11:47:26;;;;;;;20.17;3.00;;;6.80;99.90;;;;;;4908353;29;20280;-63
2021/11/30 11:49:56;;;;;;;22.40;4.33;;;6.80;99.90;;;;;;4909666;29;20277;-63
2021/11/30 11:52:28;;;;;;;23.17;3.13;;;6.90;99.90;;;;;;4908119;29;20245;-63
2021/11/30 11:55:06;;;;;;;20.63;3.50;;;6.90;99.90;;;;;;4910150;29;20326;-63
2021/11/30 11:57:35;;;;;;;22.63;3.50;;;6.90;99.90;;;;;;4910308;29;20685;-63
2021/11/30 12:00:19;;;;;;;16.07;3.40;;;6.90;99.90;;;;;;4908666;29;20246;-63
2021/11/30 12:02:53;;;;;;;19.93;3.30;;;6.90;99.90;;;;;;4907826;29;20814;-63
2021/11/30 12:05:39;;;;;;;18.50;3.70;;;6.80;99.90;;;;;;4908259;29;20267;-63
2021/11/30 12:08:18;;;;;;;15.53;3.03;;;6.70;99.90;;;;;;4909034;29;20720;-62
2021/11/30 12:10:47;;;;;;;16.80;3.53;;;6.60;99.90;;;;;;4908252;29;20888;-62
2021/11/30 12:13:22;;;;;;;14.73;2.60;;;6.50;99.90;;;;;;4907939;29;20326;-63
2021/11/30 12:16:02;;;;;;;13.83;3.73;;;6.60;99.90;;;;;;4909092;29;20235;-63
2021/11/30 12:18:33;;;;;;;14.63;2.90;;;6.70;99.90;;;;;;4908194;29;20241;-64
2021/11/30 12:21:13;;;;;;;20.20;3.00;;;6.70;99.90;;;;;;4908504;29;20279;-62
2021/11/30 12:23:42;;;;;;;21.53;3.73;;;6.70;99.90;;;;;;4906023;29;20747;-63
2021/11/30 12:26:34;;;;;;;13.20;2.77;;;6.80;99.90;;;;;;4909836;29;20244;-63
2021/11/30 12:29:06;;;;;;;13.50;3.10;;;6.90;99.90;;;;;;4912169;29;20244;-63
2021/11/30 12:31:38;;;;;;;16.83;2.80;;;6.90;99.90;;;;;;4906086;29;20237;-63
2021/11/30 12:34:07;;;;;;;17.80;2.77;;;6.90;99.90;;;;;;4907065;29;20810;-63
2021/11/30 12:36:38;;;;;;;15.87;2.60;;;7.00;99.90;;;;;;4911338;29;20334;-64
2021/11/30 12:39:08;;;;;;;22.13;3.27;;;7.00;99.90;;;;;;4912369;29;20239;-62
2021/11/30 12:41:38;;;;;;;16.97;2.70;;;7.00;99.90;;;;;;4908075;29;20683;-63
2021/11/30 12:44:10;;;;;;;15.00;3.17;;;7.00;99.90;;;;;;4911577;29;20250;-63
2021/11/30 12:46:42;;;;;;;12.57;2.40;;;7.00;99.90;;;;;;4904581;29;20561;-63
2021/11/30 12:49:29;;;;;;;18.57;3.13;;;7.00;99.90;;;;;;4906586;29;20258;-63
2021/11/30 12:52:15;;;;;;;9.60;2.33;;;7.10;99.90;;;;;;4900374;29;20810;-63
2021/11/30 12:54:46;;;;;;;16.30;2.67;;;7.10;99.90;;;;;;4906473;29;20332;-63
2021/11/30 12:57:19;;;;;;;17.00;2.70;;;7.10;99.90;;;;;;4909575;29;20693;-63
2021/11/30 12:59:55;;;;;;;16.87;3.30;;;7.00;99.90;;;;;;4910289;29;20798;-63
2021/11/30 13:02:29;;;;;;;12.13;2.50;;;7.00;99.90;;;;;;4908820;29;20266;-63
2021/11/30 13:05:26;;;;;;;16.77;3.40;;;6.90;99.90;;;;;;4907177;29;20244;-63
2021/11/30 13:08:08;;;;;;;12.03;2.63;;;6.90;99.90;;;;;;4902605;29;20373;-62